createdAt,value
2018-03-15T00:00:46.286Z,100156.17
2018-03-15T00:03:20.015Z,100160.73
2018-03-15T00:05:49.795Z,100157.55
2018-03-15T00:08:19.720Z,100145.94
2018-03-15T00:10:49.776Z,100147.67
2018-03-15T00:13:19.740Z,100153.04
2018-03-15T00:15:49.498Z,100150.27
2018-03-15T00:18:19.156Z,100135.44
2018-03-15T00:20:49.159Z,100136.27
2018-03-15T00:23:18.922Z,100122.78
2018-03-15T00:25:48.604Z,100120.97
2018-03-15T00:28:18.286Z,100116.13
2018-03-15T00:30:48.906Z,100113.03
2018-03-15T00:33:19.305Z,100107.73
2018-03-15T00:35:49.961Z,100104.52
2018-03-15T00:38:20.425Z,100104.32
2018-03-15T00:40:50.239Z,100101.09
2018-03-15T00:43:20.297Z,100100.25
2018-03-15T00:45:49.948Z,100101.00
2018-03-15T00:48:19.689Z,100092.94
2018-03-15T00:50:49.830Z,100094.44
2018-03-15T00:53:19.556Z,100090.84
2018-03-15T00:55:49.522Z,100087.95
2018-03-15T00:58:19.177Z,100087.13
2018-03-15T01:00:49.193Z,100081.22
2018-03-15T01:03:19.191Z,100079.92
2018-03-15T01:06:00.496Z,100079.52
2018-03-15T01:08:31.395Z,100083.73
2018-03-15T01:11:01.184Z,100081.64
2018-03-15T01:13:30.828Z,100076.64
2018-03-15T01:16:00.855Z,100076.80
2018-03-15T01:18:30.573Z,100066.20
2018-03-15T01:21:00.347Z,100060.91
2018-03-15T01:23:30.157Z,100063.72
2018-03-15T01:25:59.816Z,100067.83
2018-03-15T01:28:30.538Z,100067.06
2018-03-15T01:31:00.301Z,100069.72
2018-03-15T01:33:30.089Z,100058.98
2018-03-15T01:35:59.771Z,100058.63
2018-03-15T01:38:29.414Z,100054.30
2018-03-15T01:40:59.859Z,100047.87
2018-03-15T01:43:29.701Z,100043.13
2018-03-15T01:45:59.370Z,100044.74
2018-03-15T01:48:30.039Z,100042.72
2018-03-15T01:50:59.730Z,100033.87
2018-03-15T01:53:29.811Z,100035.55
2018-03-15T01:55:59.501Z,100032.81
2018-03-15T01:58:29.241Z,100022.67
2018-03-15T02:00:59.772Z,100017.47
2018-03-15T02:03:30.410Z,100010.06
2018-03-15T02:06:00.869Z,100014.45
2018-03-15T02:08:30.848Z,100009.29
2018-03-15T02:11:01.588Z,100006.12
2018-03-15T02:13:32.237Z,100000.98
2018-03-15T02:16:01.898Z,99995.94
2018-03-15T02:18:31.884Z,99991.85
2018-03-15T02:21:01.730Z,99989.56
2018-03-15T02:23:31.519Z,99981.88
2018-03-15T02:26:01.405Z,99980.16
2018-03-15T02:28:31.087Z,99974.30
2018-03-15T02:31:00.785Z,99967.84
2018-03-15T02:33:31.093Z,99961.84
2018-03-15T02:36:01.053Z,99960.35
2018-03-15T02:38:31.412Z,99969.08
2018-03-15T02:41:01.185Z,99960.43
2018-03-15T02:43:31.864Z,99949.36
2018-03-15T02:46:01.607Z,99951.73
2018-03-15T02:48:32.867Z,99951.41
2018-03-15T02:51:02.703Z,99948.23
2018-03-15T02:53:32.783Z,99937.73
2018-03-15T02:56:02.669Z,99929.28
2018-03-15T02:58:32.344Z,99926.75
2018-03-15T03:01:02.056Z,99928.30
2018-03-15T03:03:31.844Z,99929.94
2018-03-15T03:06:01.560Z,99917.55
2018-03-15T03:08:32.244Z,99930.31
2018-03-15T03:11:02.180Z,99920.42
2018-03-15T03:13:31.896Z,99920.02
2018-03-15T03:16:01.747Z,99920.98
2018-03-15T03:18:32.244Z,99912.77
2018-03-15T03:21:01.923Z,99912.48
2018-03-15T03:23:31.625Z,99915.19
2018-03-15T03:26:01.417Z,99911.00
2018-03-15T03:28:31.312Z,99909.88
2018-03-15T03:31:01.957Z,99908.95
2018-03-15T03:33:31.989Z,99911.72
2018-03-15T03:36:01.718Z,99904.76
2018-03-15T03:38:31.640Z,99903.39
2018-03-15T03:41:01.641Z,99894.80
2018-03-15T03:43:31.423Z,99893.45
2018-03-15T03:46:02.004Z,99885.79
2018-03-15T03:48:31.742Z,99889.92
2018-03-15T03:51:02.444Z,99888.95
2018-03-15T03:53:32.459Z,99886.02
2018-03-15T03:56:02.251Z,99892.75
2018-03-15T03:58:32.015Z,99882.51
2018-03-15T04:01:01.820Z,99877.50
2018-03-15T04:03:31.773Z,99873.30
2018-03-15T04:06:01.561Z,99864.84
2018-03-15T04:08:31.329Z,99861.03
2018-03-15T04:11:01.305Z,99857.86
2018-03-15T04:13:31.892Z,99854.56
2018-03-15T04:16:01.609Z,99850.57
2018-03-15T04:18:31.388Z,99845.12
2018-03-15T04:21:01.240Z,99846.91
2018-03-15T04:23:30.940Z,99848.20
2018-03-15T04:26:00.721Z,99843.44
2018-03-15T04:28:30.544Z,99838.45
2018-03-15T04:31:01.731Z,99828.56
2018-03-15T04:33:31.472Z,99820.66
2018-03-15T04:36:01.216Z,99816.98
2018-03-15T04:38:31.024Z,99805.51
2018-03-15T04:41:00.692Z,99806.52
2018-03-15T04:43:31.204Z,99805.06
2018-03-15T04:46:00.999Z,99805.55
2018-03-15T04:48:30.732Z,99800.20
2018-03-15T04:51:01.224Z,99796.65
2018-03-15T04:53:31.068Z,99791.72
2018-03-15T04:56:00.879Z,99787.64
2018-03-15T04:58:30.552Z,99787.72
2018-03-15T05:01:00.253Z,99783.55
2018-03-15T05:03:30.339Z,99780.68
2018-03-15T05:06:00.864Z,99776.16
2018-03-15T05:08:31.630Z,99763.39
2018-03-15T05:11:01.396Z,99769.36
2018-03-15T05:13:31.269Z,99768.84
2018-03-15T05:16:07.538Z,99762.74
2018-03-15T05:18:37.364Z,99760.17
2018-03-15T05:21:07.167Z,99752.73
2018-03-15T05:23:36.938Z,99746.08
2018-03-15T05:26:07.372Z,99747.81
2018-03-15T05:28:37.919Z,99751.19
2018-03-15T05:31:07.807Z,99739.23
2018-03-15T05:33:38.375Z,99742.17
2018-03-15T05:36:08.086Z,99740.80
2018-03-15T05:38:37.848Z,99736.77
2018-03-15T05:41:07.588Z,99730.61
2018-03-15T05:43:37.337Z,99732.40
2018-03-15T05:46:07.336Z,99729.58
2018-03-15T05:48:37.032Z,99725.72
2018-03-15T05:51:06.899Z,99732.39
2018-03-15T05:53:37.497Z,99727.00
2018-03-15T05:56:07.488Z,99735.39
2018-03-15T05:58:37.809Z,99732.39
2018-03-15T06:01:08.488Z,99729.23
2018-03-15T06:03:38.276Z,99724.05
2018-03-15T06:06:08.105Z,99723.48
2018-03-15T06:08:37.856Z,99726.75
2018-03-15T06:11:07.825Z,99713.89
2018-03-15T06:13:37.510Z,99714.24
2018-03-15T06:16:08.134Z,99710.27
2018-03-15T06:18:38.673Z,99709.80
2018-03-15T06:21:08.796Z,99708.13
2018-03-15T06:23:38.497Z,99705.54
2018-03-15T06:26:09.832Z,99714.45
2018-03-15T06:28:40.450Z,99708.39
2018-03-15T06:31:10.863Z,99707.98
2018-03-15T06:33:40.645Z,99718.53
2018-03-15T06:36:10.455Z,99717.80
2018-03-15T06:38:40.316Z,99716.18
2018-03-15T06:41:10.136Z,99716.70
2018-03-15T06:43:39.937Z,99715.38
2018-03-15T06:46:09.793Z,99709.28
2018-03-15T06:48:39.531Z,99707.26
2018-03-15T06:51:09.306Z,99712.09
2018-03-15T06:53:40.128Z,99719.05
2018-03-15T06:56:09.966Z,99724.81
2018-03-15T06:58:39.730Z,99728.19
2018-03-15T07:01:09.843Z,99718.75
2018-03-15T07:03:39.857Z,99721.78
2018-03-15T07:06:09.596Z,99714.92
2018-03-15T07:08:39.702Z,99711.25
2018-03-15T07:11:09.619Z,99707.12
2018-03-15T07:13:39.508Z,99700.44
2018-03-15T07:16:09.491Z,99702.88
2018-03-15T07:18:39.304Z,99697.19
2018-03-15T07:21:09.141Z,99694.70
2018-03-15T07:23:38.933Z,99693.55
2018-03-15T07:26:09.796Z,99696.22
2018-03-15T07:28:39.597Z,99697.36
2018-03-15T07:31:09.525Z,99691.17
2018-03-15T07:33:40.259Z,99687.95
2018-03-15T07:36:09.952Z,99680.98
2018-03-15T07:38:39.662Z,99677.58
2018-03-15T07:41:09.389Z,99683.34
2018-03-15T07:43:39.353Z,99688.83
2018-03-15T07:46:10.097Z,99678.90
2018-03-15T07:48:40.655Z,99684.13
2018-03-15T07:51:10.520Z,99677.17
2018-03-15T07:53:40.248Z,99681.09
2018-03-15T07:56:10.733Z,99677.42
2018-03-15T07:58:40.575Z,99678.61
2018-03-15T08:01:10.323Z,99672.58
2018-03-15T08:03:40.308Z,99677.70
2018-03-15T08:06:10.252Z,99676.42
2018-03-15T08:08:40.876Z,99681.00
2018-03-15T08:11:11.688Z,99674.12
2018-03-15T08:13:41.412Z,99679.75
2018-03-15T08:16:12.348Z,99675.47
2018-03-15T08:18:42.063Z,99671.84
2018-03-15T08:21:12.038Z,99666.42
2018-03-15T08:23:41.816Z,99663.70
2018-03-15T08:26:12.374Z,99667.81
2018-03-15T08:28:42.199Z,99651.98
2018-03-15T08:31:11.972Z,99648.45
2018-03-15T08:33:42.437Z,99645.45
2018-03-15T08:36:12.433Z,99639.64
2018-03-15T08:38:42.299Z,99640.52
2018-03-15T08:41:12.249Z,99638.28
2018-03-15T08:43:42.803Z,99638.77
2018-03-15T08:46:12.971Z,99627.49
2018-03-15T08:48:43.169Z,99625.83
2018-03-15T08:51:13.007Z,99618.35
2018-03-15T08:53:42.821Z,99616.39
2018-03-15T08:56:12.743Z,99608.17
2018-03-15T08:58:42.526Z,99610.81
2018-03-15T09:01:12.272Z,99614.57
2018-03-15T09:03:42.716Z,99608.48
2018-03-15T09:06:12.505Z,99608.48
2018-03-15T09:08:42.524Z,99594.70
2018-03-15T09:11:12.948Z,99600.66
2018-03-15T09:13:42.644Z,99593.53
2018-03-15T09:16:12.561Z,99585.42
2018-03-15T09:18:42.413Z,99578.27
2018-03-15T09:21:13.684Z,99573.72
2018-03-15T09:23:43.657Z,99578.47
2018-03-15T09:26:14.191Z,99576.52
2018-03-15T09:28:44.789Z,99573.47
2018-03-15T09:31:14.468Z,99575.34
2018-03-15T09:33:44.180Z,99569.23
2018-03-15T09:36:14.348Z,99569.31
2018-03-15T09:38:44.136Z,99564.67
2018-03-15T09:41:14.061Z,99562.95
2018-03-15T09:43:43.899Z,99545.94
2018-03-15T09:46:14.510Z,99540.08
2018-03-15T09:48:44.275Z,99539.06
2018-03-15T09:51:14.158Z,99528.00
2018-03-15T09:53:44.262Z,99524.18
2018-03-15T09:56:13.943Z,99520.68
2018-03-15T09:58:43.732Z,99515.14
2018-03-15T10:01:13.954Z,99514.78
2018-03-15T10:03:43.887Z,99520.63
2018-03-15T10:06:13.816Z,99512.55
2018-03-15T10:08:43.534Z,99512.14
2018-03-15T10:11:13.206Z,99512.27
2018-03-15T10:13:43.077Z,99520.20
2018-03-15T10:16:12.824Z,99517.31
2018-03-15T10:18:43.004Z,99509.79
2018-03-15T10:21:12.929Z,99511.83
2018-03-15T10:23:42.749Z,99502.11
2018-03-15T10:26:12.813Z,99505.63
2018-03-15T10:28:43.485Z,99508.88
2018-03-15T10:31:13.292Z,99506.75
2018-03-15T10:33:43.187Z,99504.78
2018-03-15T10:36:12.993Z,99499.70
2018-03-15T10:38:42.861Z,99506.12
2018-03-15T10:41:12.599Z,99500.92
2018-03-15T10:43:42.413Z,99498.83
2018-03-15T10:46:12.332Z,99492.98
2018-03-15T10:48:42.238Z,99498.73
2018-03-15T10:51:12.031Z,99492.13
2018-03-15T10:53:41.889Z,99492.03
2018-03-15T10:56:18.325Z,99479.37
2018-03-15T10:58:48.176Z,99476.81
2018-03-15T11:01:22.143Z,99477.30
2018-03-15T11:03:52.560Z,99474.23
2018-03-15T11:06:27.172Z,99470.44
2018-03-15T11:08:59.105Z,99464.58
2018-03-15T11:11:28.868Z,99465.26
2018-03-15T11:13:58.776Z,99471.29
2018-03-15T11:16:28.708Z,99476.43
2018-03-15T11:18:58.602Z,99464.81
2018-03-15T11:21:29.404Z,99465.39
2018-03-15T11:23:59.250Z,99460.09
2018-03-15T11:26:29.721Z,99462.44
2018-03-15T11:28:59.655Z,99462.88
2018-03-15T11:31:29.358Z,99460.63
2018-03-15T11:33:59.136Z,99452.23
2018-03-15T11:36:29.008Z,99448.48
2018-03-15T11:38:59.034Z,99444.52
2018-03-15T11:41:29.569Z,99445.77
2018-03-15T11:44:00.202Z,99447.81
2018-03-15T11:46:29.956Z,99446.94
2018-03-15T11:48:59.772Z,99443.06
2018-03-15T11:51:29.608Z,99444.34
2018-03-15T11:53:59.437Z,99437.75
2018-03-15T11:56:29.348Z,99435.42
2018-03-15T11:58:59.729Z,99437.20
2018-03-15T12:01:29.472Z,99432.39
2018-03-15T12:03:59.328Z,99423.70
2018-03-15T12:06:29.859Z,99430.05
2018-03-15T12:08:59.673Z,99415.20
2018-03-15T12:11:30.231Z,99423.11
2018-03-15T12:14:00.622Z,99426.19
2018-03-15T12:16:30.441Z,99424.34
2018-03-15T12:19:00.916Z,99418.03
2018-03-15T12:21:30.868Z,99417.84
2018-03-15T12:24:00.862Z,99417.62
2018-03-15T12:26:30.593Z,99408.63
2018-03-15T12:29:01.035Z,99409.39
2018-03-15T12:31:31.608Z,99414.69
2018-03-15T12:34:01.433Z,99417.30
2018-03-15T12:36:31.197Z,99404.98
2018-03-15T12:39:02.138Z,99410.34
2018-03-15T12:41:31.956Z,99406.66
2018-03-15T12:44:02.869Z,99393.07
2018-03-15T12:46:33.041Z,99393.22
2018-03-15T12:49:02.996Z,99384.13
2018-03-15T12:51:33.040Z,99388.58
2018-03-15T12:54:03.552Z,99385.61
2018-03-15T12:56:33.305Z,99383.55
2018-03-15T12:59:03.198Z,99388.88
2018-03-15T13:01:33.716Z,99381.30
2018-03-15T13:04:04.277Z,99379.02
2018-03-15T13:06:34.298Z,99381.67
2018-03-15T13:09:04.432Z,99375.30
2018-03-15T13:11:34.125Z,99366.66
2018-03-15T13:14:03.961Z,99365.10
2018-03-15T13:16:33.625Z,99369.45
2018-03-15T13:19:04.200Z,99373.83
2018-03-15T13:21:33.983Z,99373.28
2018-03-15T13:24:03.705Z,99376.33
2018-03-15T13:26:33.539Z,99375.97
2018-03-15T13:29:03.316Z,99367.25
2018-03-15T13:31:33.256Z,99368.76
2018-03-15T13:34:03.116Z,99361.55
2018-03-15T13:36:33.816Z,99361.18
2018-03-15T13:39:03.973Z,99356.60
2018-03-15T13:41:33.690Z,99365.44
2018-03-15T13:44:04.824Z,99356.81
2018-03-15T13:46:34.715Z,99359.56
2018-03-15T13:49:04.599Z,99366.35
2018-03-15T13:51:34.545Z,99356.92
2018-03-15T13:54:04.596Z,99354.35
2018-03-15T13:56:35.146Z,99351.22
2018-03-15T13:59:04.959Z,99349.20
2018-03-15T14:01:34.812Z,99354.38
2018-03-15T14:04:04.786Z,99350.57
2018-03-15T14:06:34.812Z,99353.91
2018-03-15T14:09:05.105Z,99349.09
2018-03-15T14:11:35.317Z,99352.64
2018-03-15T14:14:05.096Z,99361.67
2018-03-15T14:16:34.860Z,99353.97
2018-03-15T14:19:04.673Z,99353.56
2018-03-15T14:21:35.349Z,99357.05
2018-03-15T14:24:05.617Z,99355.03
2018-03-15T14:26:36.117Z,99352.35
2018-03-15T14:29:06.011Z,99356.02
2018-03-15T14:31:35.815Z,99356.58
2018-03-15T14:34:05.919Z,99356.17
2018-03-15T14:36:35.945Z,99360.39
2018-03-15T14:39:06.503Z,99357.46
2018-03-15T14:41:36.209Z,99353.00
2018-03-15T14:44:06.021Z,99359.58
2018-03-15T14:46:35.873Z,99365.80
2018-03-15T14:49:05.757Z,99352.41
2018-03-15T14:51:35.778Z,99342.03
2018-03-15T14:54:05.700Z,99339.17
2018-03-15T14:56:35.651Z,99333.66
2018-03-15T14:59:06.432Z,99327.46
2018-03-15T15:01:36.524Z,99330.94
2018-03-15T15:04:06.765Z,99335.10
2018-03-15T15:06:36.708Z,99331.88
2018-03-15T15:09:07.241Z,99331.33
2018-03-15T15:11:37.024Z,99327.64
2018-03-15T15:14:06.909Z,99328.48
2018-03-15T15:16:37.570Z,99319.02
2018-03-15T15:19:07.433Z,99322.71
2018-03-15T15:21:37.301Z,99330.33
2018-03-15T15:24:07.081Z,99321.40
2018-03-15T15:26:37.697Z,99332.20
2018-03-15T15:29:07.509Z,99335.98
2018-03-15T15:31:37.273Z,99328.41
2018-03-15T15:34:07.240Z,99327.36
2018-03-15T15:36:37.039Z,99335.59
2018-03-15T15:39:07.238Z,99335.75
2018-03-15T15:41:37.097Z,99338.33
2018-03-15T15:44:07.584Z,99345.97
2018-03-15T15:46:37.324Z,99344.13
2018-03-15T15:49:07.212Z,99342.84
2018-03-15T15:51:37.241Z,99346.86
2018-03-15T15:54:07.148Z,99346.70
2018-03-15T15:56:36.984Z,99353.54
2018-03-15T15:59:07.228Z,99351.16
2018-03-15T16:01:40.752Z,99355.17
2018-03-15T16:04:10.566Z,99357.70
2018-03-15T16:06:40.346Z,99359.77
2018-03-15T16:09:11.116Z,99359.77
2018-03-15T16:11:41.155Z,99357.54
2018-03-15T16:14:10.865Z,99354.02
2018-03-15T16:16:40.764Z,99360.53
2018-03-15T16:19:10.530Z,99362.31
2018-03-15T16:21:41.199Z,99355.91
2018-03-15T16:24:11.180Z,99364.66
2018-03-15T16:26:41.818Z,99369.28
2018-03-15T16:29:12.933Z,99370.53
2018-03-15T16:31:42.731Z,99368.23
2018-03-15T16:34:12.574Z,99372.27
2018-03-15T16:36:42.546Z,99377.01
2018-03-15T16:39:12.353Z,99378.55
2018-03-15T16:41:42.886Z,99388.05
2018-03-15T16:44:12.881Z,99392.71
2018-03-15T16:46:42.828Z,99396.92
2018-03-15T16:49:12.665Z,99397.93
2018-03-15T16:51:42.588Z,99398.09
2018-03-15T16:54:13.254Z,99402.31
2018-03-15T16:56:43.395Z,99405.30
2018-03-15T16:59:13.329Z,99409.42
2018-03-15T17:01:43.367Z,99414.83
2018-03-15T17:04:13.213Z,99404.63
2018-03-15T17:06:42.965Z,99409.67
2018-03-15T17:09:12.756Z,99417.32
2018-03-15T17:11:42.595Z,99412.04
2018-03-15T17:14:12.441Z,99418.62
2018-03-15T17:16:42.153Z,99420.20
2018-03-15T17:19:12.139Z,99418.36
2018-03-15T17:21:41.856Z,99422.44
2018-03-15T17:24:11.703Z,99420.03
2018-03-15T17:26:42.309Z,99420.16
2018-03-15T17:29:12.057Z,99415.23
2018-03-15T17:31:42.625Z,99416.95
2018-03-15T17:34:12.433Z,99412.89
2018-03-15T17:36:42.285Z,99418.19
2018-03-15T17:39:12.320Z,99420.82
2018-03-15T17:41:42.874Z,99422.30
2018-03-15T17:44:12.716Z,99420.23
2018-03-15T17:46:42.543Z,99423.59
2018-03-15T17:49:12.444Z,99425.05
2018-03-15T17:51:42.442Z,99419.30
2018-03-15T17:54:12.729Z,99412.75
2018-03-15T17:56:43.325Z,99417.12
2018-03-15T17:59:13.096Z,99426.98
2018-03-15T18:01:42.870Z,99429.66
2018-03-15T18:04:12.885Z,99431.18
2018-03-15T18:06:42.856Z,99434.24
2018-03-15T18:09:12.877Z,99442.20
2018-03-15T18:11:43.045Z,99451.27
2018-03-15T18:14:13.116Z,99452.09
2018-03-15T18:16:43.799Z,99457.37
2018-03-15T18:19:15.285Z,99462.34
2018-03-15T18:21:45.105Z,99464.09
2018-03-15T18:24:14.992Z,99458.95
2018-03-15T18:26:45.716Z,99466.64
2018-03-15T18:29:15.567Z,99471.50
2018-03-15T18:31:45.349Z,99471.83
2018-03-15T18:34:15.882Z,99468.48
2018-03-15T18:36:46.887Z,99463.20
2018-03-15T18:39:16.944Z,99467.48
2018-03-15T18:41:47.556Z,99461.99
2018-03-15T18:44:18.243Z,99468.30
2018-03-15T18:46:48.192Z,99469.63
2018-03-15T18:49:17.941Z,99472.50
2018-03-15T18:51:48.581Z,99472.55
2018-03-15T18:54:18.789Z,99475.30
2018-03-15T18:56:49.324Z,99471.30
2018-03-15T18:59:20.126Z,99479.15
2018-03-15T19:01:49.961Z,99486.24
2018-03-15T19:04:19.806Z,99482.23
2018-03-15T19:06:49.542Z,99483.36
2018-03-15T19:09:19.346Z,99485.09
2018-03-15T19:11:49.205Z,99493.24
2018-03-15T19:14:19.128Z,99497.44
2018-03-15T19:16:49.772Z,99499.69
2018-03-15T19:19:19.626Z,99504.04
2018-03-15T19:21:49.719Z,99506.09
2018-03-15T19:24:19.748Z,99511.12
2018-03-15T19:26:49.683Z,99512.31
2018-03-15T19:29:19.467Z,99515.55
2018-03-15T19:31:49.293Z,99523.39
2018-03-15T19:34:19.061Z,99531.00
2018-03-15T19:36:48.913Z,99532.51
2018-03-15T19:39:18.664Z,99532.22
2018-03-15T19:41:48.536Z,99531.92
2018-03-15T19:44:18.314Z,99537.69
2018-03-15T19:46:48.138Z,99543.08
2018-03-15T19:49:18.651Z,99541.94
2018-03-15T19:51:48.691Z,99545.85
2018-03-15T19:54:19.335Z,99545.25
2018-03-15T19:56:49.332Z,99551.44
2018-03-15T19:59:19.998Z,99554.66
2018-03-15T20:01:52.549Z,99558.03
2018-03-15T20:04:23.076Z,99556.08
2018-03-15T20:06:53.761Z,99557.62
2018-03-15T20:09:23.514Z,99566.32
2018-03-15T20:11:53.290Z,99565.16
2018-03-15T20:14:23.067Z,99571.50
2018-03-15T20:16:53.605Z,99563.03
2018-03-15T20:19:23.510Z,99568.45
2018-03-15T20:21:55.861Z,99567.56
2018-03-15T20:24:32.810Z,99564.04
2018-03-15T20:27:02.598Z,99562.06
2018-03-15T20:29:32.432Z,99559.86
2018-03-15T20:32:02.312Z,99562.84
2018-03-15T20:34:32.060Z,99563.86
2018-03-15T20:37:02.083Z,99564.00
2018-03-15T20:40:34.780Z,99564.55
2018-03-15T20:43:04.543Z,99562.34
2018-03-15T20:45:38.570Z,99559.27
2018-03-15T20:49:10.921Z,99558.95
2018-03-15T20:51:41.436Z,99561.02
2018-03-15T20:54:12.388Z,99562.66
2018-03-15T20:56:42.287Z,99558.41
2018-03-15T20:59:12.176Z,99564.63
2018-03-15T21:01:42.126Z,99552.53
2018-03-15T21:04:12.672Z,99553.59
2018-03-15T21:06:42.644Z,99550.47
2018-03-15T21:09:12.412Z,99552.65
2018-03-15T21:11:42.312Z,99546.44
2018-03-15T21:14:12.203Z,99545.52
2018-03-15T21:16:42.236Z,99550.56
2018-03-15T21:19:12.925Z,99539.36
2018-03-15T21:21:43.030Z,99547.86
2018-03-15T21:24:12.868Z,99551.05
2018-03-15T21:26:42.661Z,99546.80
2018-03-15T21:29:12.702Z,99544.10
2018-03-15T21:31:42.736Z,99539.98
2018-03-15T21:34:13.272Z,99535.20
2018-03-15T21:36:43.824Z,99541.25
2018-03-15T21:39:13.764Z,99540.72
2018-03-15T21:41:43.561Z,99538.88
2018-03-15T21:44:13.289Z,99538.66
2018-03-15T21:46:43.021Z,99537.27
2018-03-15T21:49:12.956Z,99534.63
2018-03-15T21:51:42.731Z,99539.36
2018-03-15T21:54:12.491Z,99534.19
2018-03-15T21:56:43.136Z,99535.68
2018-03-15T21:59:13.864Z,99533.65
2018-03-15T22:01:44.537Z,99537.55
2018-03-15T22:04:14.509Z,99532.98
2018-03-15T22:06:45.126Z,99537.86
2018-03-15T22:09:15.429Z,99530.06
2018-03-15T22:11:45.344Z,99533.39
2018-03-15T22:14:15.596Z,99535.11
2018-03-15T22:16:45.677Z,99532.23
2018-03-15T22:19:15.632Z,99533.25
2018-03-15T22:21:46.395Z,99529.80
2018-03-15T22:24:17.225Z,99527.58
2018-03-15T22:26:47.286Z,99528.81
2018-03-15T22:29:17.228Z,99525.67
2018-03-15T22:31:47.038Z,99531.83
2018-03-15T22:34:17.008Z,99530.95
2018-03-15T22:36:46.808Z,99532.45
2018-03-15T22:39:16.588Z,99536.63
2018-03-15T22:41:46.517Z,99528.34
2018-03-15T22:44:16.967Z,99528.65
2018-03-15T22:46:46.755Z,99532.11
2018-03-15T22:49:17.502Z,99539.19
2018-03-15T22:51:47.506Z,99546.67
2018-03-15T22:54:18.163Z,99543.34
2018-03-15T22:56:48.145Z,99553.49
2018-03-15T22:59:18.149Z,99545.79
2018-03-15T23:01:48.693Z,99554.73
2018-03-15T23:04:19.328Z,99558.09
2018-03-15T23:06:49.839Z,99559.68
2018-03-15T23:09:19.713Z,99555.34
2018-03-15T23:11:49.497Z,99555.03
2018-03-15T23:14:20.306Z,99560.92
2018-03-15T23:16:50.385Z,99560.03
2018-03-15T23:19:20.417Z,99560.39
2018-03-15T23:21:50.206Z,99565.96
2018-03-15T23:24:19.894Z,99568.67
2018-03-15T23:26:50.455Z,99563.84
2018-03-15T23:29:20.232Z,99568.41
2018-03-15T23:31:50.917Z,99572.03
2018-03-15T23:34:20.605Z,99571.72
2018-03-15T23:36:50.364Z,99575.94
2018-03-15T23:39:20.188Z,99571.49
2018-03-15T23:41:50.057Z,99569.25
2018-03-15T23:44:19.875Z,99577.08
2018-03-15T23:46:49.768Z,99576.34
2018-03-15T23:49:19.696Z,99576.10
2018-03-15T23:51:49.501Z,99576.31
2018-03-15T23:54:19.268Z,99571.63
2018-03-15T23:56:49.020Z,99576.53
2018-03-15T23:59:18.839Z,99581.25
